Weather at Graz Airport

Public forecast

Using degrees Celsius for public forecast. Weather courtesy of forecast.io.

Current aviation weather report (METAR) for Graz Airport

Report is more than 6 hours old.

2022/11/14 15:20 (retrieved 2 years ago)

LOWG 141520Z 16006KT 6000 FEW017 BKN070 09/07 Q1022 TEMPO 4000 BR

Aviation forecast (TAF) for Graz Airport

Forecast is more than 12 hours old.

2023/02/22 18:22 (retrieved 1 year ago)

TAF LOWG 221715Z 2218/2318 VRB03KT CAVOK TX10/2314Z TN02/2305Z PROB30 TEMPO 2220/2307 0800 BCFG FZFG FEW002